sensor_id;sensor_type;location;lat;lon;timestamp;pressure;altitude;pressure_sealevel;temperature;humidity
54588;BME280;40484;50.198;19.576;2023-06-14T00:02:36;101592.98;;;18.90;45.20
54588;BME280;40484;50.198;19.576;2023-06-14T00:07:39;101604.63;;;18.87;45.00
54588;BME280;40484;50.198;19.576;2023-06-14T00:12:43;101603.42;;;18.84;44.89
54588;BME280;40484;50.198;19.576;2023-06-14T00:17:45;101591.41;;;18.75;45.26
54588;BME280;40484;50.198;19.576;2023-06-14T00:22:48;101585.58;;;18.62;45.53
54588;BME280;40484;50.198;19.576;2023-06-14T00:27:49;101591.67;;;18.61;45.63
54588;BME280;40484;50.198;19.576;2023-06-14T00:32:51;101580.75;;;18.70;45.49
54588;BME280;40484;50.198;19.576;2023-06-14T00:37:53;101584.77;;;18.69;45.51
54588;BME280;40484;50.198;19.576;2023-06-14T00:42:55;101569.60;;;18.81;45.41
54588;BME280;40484;50.198;19.576;2023-06-14T00:47:57;101576.28;;;18.73;45.26
54588;BME280;40484;50.198;19.576;2023-06-14T00:53:00;101577.55;;;18.72;45.01
54588;BME280;40484;50.198;19.576;2023-06-14T00:58:02;101568.59;;;18.58;44.99
54588;BME280;40484;50.198;19.576;2023-06-14T01:03:04;101557.48;;;18.45;45.20
54588;BME280;40484;50.198;19.576;2023-06-14T01:08:44;101556.73;;;18.51;45.27
54588;BME280;40484;50.198;19.576;2023-06-14T01:13:45;101569.41;;;18.38;45.47
54588;BME280;40484;50.198;19.576;2023-06-14T01:18:47;101569.28;;;18.24;46.06
54588;BME280;40484;50.198;19.576;2023-06-14T01:23:50;101559.20;;;18.13;46.97
54588;BME280;40484;50.198;19.576;2023-06-14T01:28:56;101551.92;;;18.29;47.09
54588;BME280;40484;50.198;19.576;2023-06-14T01:33:59;101543.55;;;18.48;46.48
54588;BME280;40484;50.198;19.576;2023-06-14T01:39:01;101539.33;;;18.59;46.24
54588;BME280;40484;50.198;19.576;2023-06-14T01:44:04;101550.39;;;18.53;46.21
54588;BME280;40484;50.198;19.576;2023-06-14T01:49:06;101548.71;;;18.52;46.07
54588;BME280;40484;50.198;19.576;2023-06-14T01:54:08;101549.93;;;18.44;46.26
54588;BME280;40484;50.198;19.576;2023-06-14T01:59:09;101535.25;;;18.52;46.23
54588;BME280;40484;50.198;19.576;2023-06-14T02:04:11;101540.08;;;18.43;46.47
54588;BME280;40484;50.198;19.576;2023-06-14T02:09:13;101546.16;;;18.44;46.63
54588;BME280;40484;50.198;19.576;2023-06-14T02:14:15;101548.27;;;18.53;46.68
54588;BME280;40484;50.198;19.576;2023-06-14T02:19:19;101547.21;;;18.53;46.99
54588;BME280;40484;50.198;19.576;2023-06-14T02:24:21;101543.13;;;18.57;46.92
54588;BME280;40484;50.198;19.576;2023-06-14T02:29:24;101548.71;;;18.72;46.71
54588;BME280;40484;50.198;19.576;2023-06-14T02:34:51;101545.77;;;18.72;46.79
54588;BME280;40484;50.198;19.576;2023-06-14T02:39:52;101547.66;;;18.72;46.83
54588;BME280;40484;50.198;19.576;2023-06-14T02:44:54;101536.48;;;18.53;47.73
54588;BME280;40484;50.198;19.576;2023-06-14T02:49:55;101549.96;;;18.23;48.79
54588;BME280;40484;50.198;19.576;2023-06-14T02:54:57;101546.01;;;18.21;49.23
54588;BME280;40484;50.198;19.576;2023-06-14T02:59:59;101539.66;;;18.13;49.22
54588;BME280;40484;50.198;19.576;2023-06-14T03:05:01;101540.16;;;17.86;49.72
54588;BME280;40484;50.198;19.576;2023-06-14T03:10:04;101542.28;;;17.72;50.22
54588;BME280;40484;50.198;19.576;2023-06-14T03:15:07;101537.15;;;17.52;51.14
54588;BME280;40484;50.198;19.576;2023-06-14T03:20:08;101532.66;;;17.58;51.08
54588;BME280;40484;50.198;19.576;2023-06-14T03:25:10;101533.55;;;17.66;51.09
54588;BME280;40484;50.198;19.576;2023-06-14T03:30:12;101535.04;;;17.76;51.10
54588;BME280;40484;50.198;19.576;2023-06-14T03:35:14;101544.63;;;17.84;51.10
54588;BME280;40484;50.198;19.576;2023-06-14T03:40:19;101543.92;;;17.98;50.91
54588;BME280;40484;50.198;19.576;2023-06-14T03:45:21;101553.73;;;18.23;50.57
54588;BME280;40484;50.198;19.576;2023-06-14T03:50:23;101552.32;;;18.21;50.45
54588;BME280;40484;50.198;19.576;2023-06-14T03:55:24;101554.73;;;17.93;50.93
54588;BME280;40484;50.198;19.576;2023-06-14T04:00:30;101554.37;;;17.91;51.24
54588;BME280;40484;50.198;19.576;2023-06-14T04:05:31;101549.04;;;17.84;51.54
54588;BME280;40484;50.198;19.576;2023-06-14T04:10:33;101555.02;;;17.79;51.52
54588;BME280;40484;50.198;19.576;2023-06-14T04:15:59;101559.59;;;17.68;52.01
54588;BME280;40484;50.198;19.576;2023-06-14T04:21:01;101562.82;;;17.63;51.98
54588;BME280;40484;50.198;19.576;2023-06-14T04:26:02;101566.77;;;17.65;52.18
54588;BME280;40484;50.198;19.576;2023-06-14T04:31:05;101565.91;;;17.55;52.38
54588;BME280;40484;50.198;19.576;2023-06-14T04:36:07;101568.84;;;17.56;52.36
54588;BME280;40484;50.198;19.576;2023-06-14T04:41:09;101573.52;;;17.52;52.46
54588;BME280;40484;50.198;19.576;2023-06-14T04:46:12;101577.25;;;17.56;52.67
54588;BME280;40484;50.198;19.576;2023-06-14T04:51:15;101564.69;;;17.52;52.80
54588;BME280;40484;50.198;19.576;2023-06-14T04:56:17;101564.98;;;17.34;53.52
54588;BME280;40484;50.198;19.576;2023-06-14T05:01:19;101570.80;;;17.26;53.65
54588;BME280;40484;50.198;19.576;2023-06-14T05:06:23;101573.28;;;17.16;53.87
54588;BME280;40484;50.198;19.576;2023-06-14T05:11:24;101570.78;;;16.99;54.36
54588;BME280;40484;50.198;19.576;2023-06-14T05:16:27;101575.55;;;17.04;54.41
54588;BME280;40484;50.198;19.576;2023-06-14T05:21:30;101583.05;;;17.21;54.31
54588;BME280;40484;50.198;19.576;2023-06-14T05:26:34;101584.75;;;17.47;54.25
54588;BME280;40484;50.198;19.576;2023-06-14T05:31:36;101586.37;;;17.75;53.69
54588;BME280;40484;50.198;19.576;2023-06-14T05:36:38;101581.93;;;17.91;53.79
54588;BME280;40484;50.198;19.576;2023-06-14T05:41:40;101584.66;;;18.13;53.71
54588;BME280;40484;50.198;19.576;2023-06-14T05:46:41;101589.30;;;18.34;53.44
54588;BME280;40484;50.198;19.576;2023-06-14T05:51:43;101586.92;;;18.57;53.37
54588;BME280;40484;50.198;19.576;2023-06-14T05:57:10;101591.33;;;18.79;52.94
54588;BME280;40484;50.198;19.576;2023-06-14T06:02:11;101583.11;;;18.88;52.64
54588;BME280;40484;50.198;19.576;2023-06-14T06:07:13;101594.87;;;19.00;52.36
54588;BME280;40484;50.198;19.576;2023-06-14T06:12:15;101596.36;;;18.98;52.25
54588;BME280;40484;50.198;19.576;2023-06-14T06:17:16;101606.61;;;18.72;52.53
54588;BME280;40484;50.198;19.576;2023-06-14T06:22:18;101599.68;;;18.82;52.60
54588;BME280;40484;50.198;19.576;2023-06-14T06:27:19;101604.30;;;18.83;52.69
54588;BME280;40484;50.198;19.576;2023-06-14T06:32:21;101605.29;;;18.86;52.81
54588;BME280;40484;50.198;19.576;2023-06-14T06:37:23;101619.72;;;18.81;52.38
54588;BME280;40484;50.198;19.576;2023-06-14T06:42:24;101616.37;;;18.89;52.44
54588;BME280;40484;50.198;19.576;2023-06-14T06:47:26;101624.13;;;19.01;52.17
54588;BME280;40484;50.198;19.576;2023-06-14T06:52:28;101624.78;;;18.90;52.18
54588;BME280;40484;50.198;19.576;2023-06-14T06:57:30;101633.96;;;18.94;52.02
54588;BME280;40484;50.198;19.576;2023-06-14T07:02:31;101634.61;;;18.94;51.99
54588;BME280;40484;50.198;19.576;2023-06-14T07:07:34;101638.09;;;19.17;51.66
54588;BME280;40484;50.198;19.576;2023-06-14T07:12:35;101647.27;;;19.39;51.42
54588;BME280;40484;50.198;19.576;2023-06-14T07:17:39;101648.19;;;19.45;51.26
54588;BME280;40484;50.198;19.576;2023-06-14T07:22:42;101654.52;;;19.44;51.00
54588;BME280;40484;50.198;19.576;2023-06-14T07:27:46;101663.71;;;19.40;51.00
54588;BME280;40484;50.198;19.576;2023-06-14T07:32:47;101670.32;;;19.45;50.93
54588;BME280;40484;50.198;19.576;2023-06-14T07:37:48;101669.64;;;19.38;50.87
54588;BME280;40484;50.198;19.576;2023-06-14T07:43:15;101676.77;;;19.12;51.27
54588;BME280;40484;50.198;19.576;2023-06-14T07:48:18;101674.32;;;19.07;51.47
54588;BME280;40484;50.198;19.576;2023-06-14T07:53:19;101676.10;;;19.05;51.70
54588;BME280;40484;50.198;19.576;2023-06-14T07:58:21;101688.76;;;19.23;51.59
54588;BME280;40484;50.198;19.576;2023-06-14T08:03:23;101676.55;;;19.31;51.50
54588;BME280;40484;50.198;19.576;2023-06-14T08:08:25;101677.14;;;19.42;51.83
54588;BME280;40484;50.198;19.576;2023-06-14T08:13:26;101679.73;;;19.30;51.36
54588;BME280;40484;50.198;19.576;2023-06-14T08:18:31;101677.22;;;19.29;51.33
54588;BME280;40484;50.198;19.576;2023-06-14T08:23:33;101674.34;;;19.45;51.14
54588;BME280;40484;50.198;19.576;2023-06-14T08:28:35;101679.41;;;19.53;50.96
54588;BME280;40484;50.198;19.576;2023-06-14T08:33:36;101684.10;;;19.70;50.66
54588;BME280;40484;50.198;19.576;2023-06-14T08:38:38;101695.91;;;19.78;50.54
54588;BME280;40484;50.198;19.576;2023-06-14T08:43:40;101695.40;;;19.92;50.26
54588;BME280;40484;50.198;19.576;2023-06-14T08:48:42;101690.60;;;19.98;50.08
54588;BME280;40484;50.198;19.576;2023-06-14T08:53:44;101692.84;;;20.00;50.07
54588;BME280;40484;50.198;19.576;2023-06-14T08:58:47;101700.82;;;19.93;50.24
54588;BME280;40484;50.198;19.576;2023-06-14T09:03:50;101718.63;;;19.90;50.28
54588;BME280;40484;50.198;19.576;2023-06-14T09:08:51;101722.05;;;19.80;50.62
54588;BME280;40484;50.198;19.576;2023-06-14T09:13:54;101725.26;;;19.77;51.01
54588;BME280;40484;50.198;19.576;2023-06-14T09:18:56;101727.88;;;19.92;51.02
54588;BME280;40484;50.198;19.576;2023-06-14T09:24:26;101723.31;;;20.05;51.02
54588;BME280;40484;50.198;19.576;2023-06-14T09:29:27;101725.69;;;20.04;51.38
54588;BME280;40484;50.198;19.576;2023-06-14T09:34:29;101721.02;;;20.13;51.34
54588;BME280;40484;50.198;19.576;2023-06-14T09:39:31;101723.00;;;20.18;51.89
54588;BME280;40484;50.198;19.576;2023-06-14T09:44:33;101721.64;;;20.22;51.76
54588;BME280;40484;50.198;19.576;2023-06-14T09:49:34;101711.87;;;20.15;51.33
54588;BME280;40484;50.198;19.576;2023-06-14T09:54:40;101725.72;;;20.19;51.50
54588;BME280;40484;50.198;19.576;2023-06-14T09:59:41;101719.62;;;20.34;51.09
54588;BME280;40484;50.198;19.576;2023-06-14T10:04:46;101726.43;;;20.41;51.36
54588;BME280;40484;50.198;19.576;2023-06-14T10:09:47;101725.13;;;20.42;51.73
54588;BME280;40484;50.198;19.576;2023-06-14T10:14:51;101724.05;;;20.50;52.41
54588;BME280;40484;50.198;19.576;2023-06-14T10:20:19;101727.47;;;20.41;52.32
54588;BME280;40484;50.198;19.576;2023-06-14T10:25:29;101727.59;;;20.53;51.96
54588;BME280;40484;50.198;19.576;2023-06-14T10:31:03;101729.55;;;20.66;51.70
54588;BME280;40484;50.198;19.576;2023-06-14T10:41:20;101734.52;;;20.55;51.41
54588;BME280;40484;50.198;19.576;2023-06-14T10:46:22;101733.31;;;20.60;50.87
54588;BME280;40484;50.198;19.576;2023-06-14T10:51:29;101730.70;;;20.71;50.62
54588;BME280;40484;50.198;19.576;2023-06-14T10:56:32;101729.49;;;20.68;50.50
54588;BME280;40484;50.198;19.576;2023-06-14T11:01:40;101721.45;;;20.69;50.73
54588;BME280;40484;50.198;19.576;2023-06-14T11:06:49;101724.13;;;20.71;50.72
54588;BME280;40484;50.198;19.576;2023-06-14T11:11:54;101719.24;;;20.73;50.47
54588;BME280;40484;50.198;19.576;2023-06-14T11:16:56;101720.76;;;20.56;50.55
54588;BME280;40484;50.198;19.576;2023-06-14T11:21:59;101724.54;;;20.57;50.74
54588;BME280;40484;50.198;19.576;2023-06-14T11:27:00;101717.19;;;20.55;50.94
54588;BME280;40484;50.198;19.576;2023-06-14T11:32:02;101715.84;;;20.42;51.25
54588;BME280;40484;50.198;19.576;2023-06-14T11:37:04;101710.83;;;20.47;51.46
54588;BME280;40484;50.198;19.576;2023-06-14T11:42:31;101707.73;;;20.54;51.56
54588;BME280;40484;50.198;19.576;2023-06-14T11:47:33;101712.23;;;20.42;52.02
54588;BME280;40484;50.198;19.576;2023-06-14T11:52:36;101704.23;;;20.00;52.78
54588;BME280;40484;50.198;19.576;2023-06-14T11:57:37;101704.87;;;19.91;52.83
54588;BME280;40484;50.198;19.576;2023-06-14T12:02:40;101695.17;;;20.01;52.98
54588;BME280;40484;50.198;19.576;2023-06-14T12:07:41;101682.26;;;20.42;53.32
54588;BME280;40484;50.198;19.576;2023-06-14T12:12:44;101682.63;;;20.52;53.00
54588;BME280;40484;50.198;19.576;2023-06-14T12:17:46;101685.38;;;20.67;52.98
54588;BME280;40484;50.198;19.576;2023-06-14T12:22:58;101683.46;;;20.44;51.03
54588;BME280;40484;50.198;19.576;2023-06-14T12:28:09;101689.41;;;20.34;52.26
54588;BME280;40484;50.198;19.576;2023-06-14T12:33:11;101692.05;;;20.55;52.21
54588;BME280;40484;50.198;19.576;2023-06-14T12:38:12;101686.55;;;20.93;53.47
54588;BME280;40484;50.198;19.576;2023-06-14T12:43:16;101683.78;;;21.21;52.30
54588;BME280;40484;50.198;19.576;2023-06-14T12:48:17;101681.28;;;21.55;51.15
54588;BME280;40484;50.198;19.576;2023-06-14T12:53:19;101684.28;;;21.81;50.74
54588;BME280;40484;50.198;19.576;2023-06-14T12:58:21;101687.35;;;21.83;50.18
54588;BME280;40484;50.198;19.576;2023-06-14T13:03:24;101683.86;;;21.87;49.89
54588;BME280;40484;50.198;19.576;2023-06-14T13:08:51;101680.74;;;22.16;48.29
54588;BME280;40484;50.198;19.576;2023-06-14T13:13:54;101680.75;;;22.29;48.10
54588;BME280;40484;50.198;19.576;2023-06-14T13:18:56;101680.31;;;22.17;47.14
54588;BME280;40484;50.198;19.576;2023-06-14T13:23:57;101681.95;;;21.99;49.72
54588;BME280;40484;50.198;19.576;2023-06-14T13:28:59;101682.91;;;21.96;48.11
54588;BME280;40484;50.198;19.576;2023-06-14T13:34:01;101673.70;;;21.67;47.85
54588;BME280;40484;50.198;19.576;2023-06-14T13:39:02;101679.29;;;21.16;48.65
54588;BME280;40484;50.198;19.576;2023-06-14T13:44:04;101674.34;;;20.84;49.05
54588;BME280;40484;50.198;19.576;2023-06-14T13:49:06;101674.69;;;21.22;49.68
54588;BME280;40484;50.198;19.576;2023-06-14T13:54:08;101680.62;;;21.07;51.82
54588;BME280;40484;50.198;19.576;2023-06-14T13:59:09;101670.99;;;21.60;50.08
54588;BME280;40484;50.198;19.576;2023-06-14T14:04:13;101675.79;;;21.13;49.63
54588;BME280;40484;50.198;19.576;2023-06-14T14:09:14;101680.54;;;21.03;49.33
54588;BME280;40484;50.198;19.576;2023-06-14T14:14:16;101681.88;;;21.14;48.58
54588;BME280;40484;50.198;19.576;2023-06-14T14:19:18;101678.75;;;21.34;48.60
54588;BME280;40484;50.198;19.576;2023-06-14T14:24:22;101663.75;;;21.61;48.57
54588;BME280;40484;50.198;19.576;2023-06-14T14:29:24;101661.81;;;21.75;48.68
54588;BME280;40484;50.198;19.576;2023-06-14T14:34:25;101661.00;;;22.05;48.09
54588;BME280;40484;50.198;19.576;2023-06-14T14:39:27;101653.79;;;22.06;47.57
54588;BME280;40484;50.198;19.576;2023-06-14T14:44:29;101664.72;;;21.96;45.87
54588;BME280;40484;50.198;19.576;2023-06-14T14:49:31;101650.55;;;21.57;45.46
54588;BME280;40484;50.198;19.576;2023-06-14T14:54:57;101654.97;;;21.89;46.64
54588;BME280;40484;50.198;19.576;2023-06-14T14:59:59;101647.77;;;22.39;46.38
54588;BME280;40484;50.198;19.576;2023-06-14T15:05:00;101649.27;;;22.33;45.73
54588;BME280;40484;50.198;19.576;2023-06-14T15:10:05;101642.45;;;22.28;46.44
54588;BME280;40484;50.198;19.576;2023-06-14T15:16:34;101652.47;;;22.50;46.24
54588;BME280;40484;50.198;19.576;2023-06-14T15:21:35;101654.66;;;22.36;45.89
54588;BME280;40484;50.198;19.576;2023-06-14T15:26:37;101647.89;;;22.29;45.61
54588;BME280;40484;50.198;19.576;2023-06-14T15:31:38;101653.51;;;21.83;47.18
54588;BME280;40484;50.198;19.576;2023-06-14T15:36:40;101654.34;;;21.83;47.28
54588;BME280;40484;50.198;19.576;2023-06-14T15:41:42;101661.64;;;21.80;46.93
54588;BME280;40484;50.198;19.576;2023-06-14T15:46:43;101661.68;;;21.91;46.65
54588;BME280;40484;50.198;19.576;2023-06-14T15:51:45;101654.81;;;21.88;46.46
54588;BME280;40484;50.198;19.576;2023-06-14T15:56:47;101664.52;;;21.95;46.21
54588;BME280;40484;50.198;19.576;2023-06-14T16:01:48;101663.63;;;21.77;46.23
54588;BME280;40484;50.198;19.576;2023-06-14T16:06:50;101664.75;;;22.01;46.20
54588;BME280;40484;50.198;19.576;2023-06-14T16:11:52;101657.13;;;22.20;46.15
54588;BME280;40484;50.198;19.576;2023-06-14T16:16:55;101666.84;;;22.15;45.86
54588;BME280;40484;50.198;19.576;2023-06-14T16:21:57;101658.52;;;22.09;45.66
54588;BME280;40484;50.198;19.576;2023-06-14T16:26:58;101652.84;;;22.02;46.03
54588;BME280;40484;50.198;19.576;2023-06-14T16:32:00;101655.28;;;22.06;46.68
54588;BME280;40484;50.198;19.576;2023-06-14T16:37:02;101658.52;;;22.52;46.48
54588;BME280;40484;50.198;19.576;2023-06-14T16:42:04;101663.05;;;22.96;45.43
54588;BME280;40484;50.198;19.576;2023-06-14T16:47:06;101674.23;;;23.14;44.62
54588;BME280;40484;50.198;19.576;2023-06-14T16:52:10;101671.74;;;23.24;43.90
54588;BME280;40484;50.198;19.576;2023-06-14T16:57:38;101675.18;;;23.00;43.88
54588;BME280;40484;50.198;19.576;2023-06-14T17:02:40;101682.30;;;23.03;44.13
54588;BME280;40484;50.198;19.576;2023-06-14T17:07:41;101684.26;;;22.84;44.16
54588;BME280;40484;50.198;19.576;2023-06-14T17:12:43;101686.68;;;22.70;44.42
54588;BME280;40484;50.198;19.576;2023-06-14T17:17:44;101691.39;;;22.52;45.03
54588;BME280;40484;50.198;19.576;2023-06-14T17:22:46;101688.32;;;22.30;45.57
54588;BME280;40484;50.198;19.576;2023-06-14T17:27:48;101687.46;;;22.12;45.93
54588;BME280;40484;50.198;19.576;2023-06-14T17:32:52;101685.09;;;22.00;46.47
54588;BME280;40484;50.198;19.576;2023-06-14T17:37:54;101689.78;;;21.87;46.56
54588;BME280;40484;50.198;19.576;2023-06-14T17:42:55;101694.27;;;21.85;46.49
54588;BME280;40484;50.198;19.576;2023-06-14T17:47:57;101696.75;;;21.74;46.71
54588;BME280;40484;50.198;19.576;2023-06-14T17:52:58;101700.77;;;21.48;47.15
54588;BME280;40484;50.198;19.576;2023-06-14T17:58:02;101712.03;;;21.24;48.04
54588;BME280;40484;50.198;19.576;2023-06-14T18:03:05;101712.80;;;21.05;48.26
54588;BME280;40484;50.198;19.576;2023-06-14T18:08:07;101717.96;;;21.03;48.13
54588;BME280;40484;50.198;19.576;2023-06-14T18:13:08;101731.02;;;20.97;48.54
54588;BME280;40484;50.198;19.576;2023-06-14T18:18:10;101721.79;;;21.16;48.51
54588;BME280;40484;50.198;19.576;2023-06-14T18:23:12;101724.07;;;21.46;47.98
54588;BME280;40484;50.198;19.576;2023-06-14T18:28:13;101722.98;;;21.54;47.74
54588;BME280;40484;50.198;19.576;2023-06-14T18:33:15;101723.06;;;21.59;47.81
54588;BME280;40484;50.198;19.576;2023-06-14T18:38:17;101719.07;;;21.57;47.75
54588;BME280;40484;50.198;19.576;2023-06-14T18:43:43;101722.73;;;21.55;48.03
54588;BME280;40484;50.198;19.576;2023-06-14T18:48:44;101721.73;;;21.53;48.08
54588;BME280;40484;50.198;19.576;2023-06-14T18:53:46;101742.40;;;21.55;48.11
54588;BME280;40484;50.198;19.576;2023-06-14T18:58:47;101740.21;;;21.58;48.12
54588;BME280;40484;50.198;19.576;2023-06-14T19:03:49;101743.38;;;21.59;48.09
54588;BME280;40484;50.198;19.576;2023-06-14T19:08:51;101748.86;;;21.58;48.03
54588;BME280;40484;50.198;19.576;2023-06-14T19:13:52;101759.56;;;21.48;48.20
54588;BME280;40484;50.198;19.576;2023-06-14T19:18:54;101753.34;;;21.44;48.27
54588;BME280;40484;50.198;19.576;2023-06-14T19:23:55;101750.09;;;21.40;48.32
54588;BME280;40484;50.198;19.576;2023-06-14T19:28:57;101757.40;;;21.35;48.35
54588;BME280;40484;50.198;19.576;2023-06-14T19:33:59;101764.94;;;20.93;49.07
54588;BME280;40484;50.198;19.576;2023-06-14T19:39:00;101760.03;;;20.80;49.53
54588;BME280;40484;50.198;19.576;2023-06-14T19:44:02;101755.62;;;20.94;49.37
54588;BME280;40484;50.198;19.576;2023-06-14T19:49:03;101761.73;;;21.02;49.23
54588;BME280;40484;50.198;19.576;2023-06-14T19:54:05;101764.55;;;21.07;49.03
54588;BME280;40484;50.198;19.576;2023-06-14T19:59:07;101756.85;;;21.03;48.96
54588;BME280;40484;50.198;19.576;2023-06-14T20:04:08;101758.44;;;20.91;48.99
54588;BME280;40484;50.198;19.576;2023-06-14T20:09:10;101768.00;;;20.97;48.92
54588;BME280;40484;50.198;19.576;2023-06-14T20:14:16;101760.61;;;20.97;48.72
54588;BME280;40484;50.198;19.576;2023-06-14T20:19:18;101767.90;;;20.93;48.68
54588;BME280;40484;50.198;19.576;2023-06-14T20:24:20;101767.97;;;20.91;48.74
54588;BME280;40484;50.198;19.576;2023-06-14T20:29:47;101767.59;;;20.89;48.78
54588;BME280;40484;50.198;19.576;2023-06-14T20:34:48;101766.32;;;20.82;48.80
54588;BME280;40484;50.198;19.576;2023-06-14T20:39:56;101761.65;;;20.74;48.75
54588;BME280;40484;50.198;19.576;2023-06-14T20:45:07;101760.85;;;20.66;48.79
54588;BME280;40484;50.198;19.576;2023-06-14T20:50:09;101763.63;;;20.56;48.75
54588;BME280;40484;50.198;19.576;2023-06-14T20:55:12;101762.07;;;20.42;49.12
54588;BME280;40484;50.198;19.576;2023-06-14T21:00:16;101762.05;;;20.34;49.21
54588;BME280;40484;50.198;19.576;2023-06-14T21:05:18;101766.20;;;20.28;49.38
54588;BME280;40484;50.198;19.576;2023-06-14T21:10:20;101772.40;;;20.34;49.19
54588;BME280;40484;50.198;19.576;2023-06-14T21:15:21;101765.16;;;20.36;48.86
54588;BME280;40484;50.198;19.576;2023-06-14T21:20:26;101772.50;;;20.30;48.64
54588;BME280;40484;50.198;19.576;2023-06-14T21:25:28;101774.12;;;20.17;48.27
54588;BME280;40484;50.198;19.576;2023-06-14T21:30:34;101769.23;;;19.92;48.38
54588;BME280;40484;50.198;19.576;2023-06-14T21:35:36;101767.55;;;19.91;48.50
54588;BME280;40484;50.198;19.576;2023-06-14T21:40:37;101761.84;;;19.82;48.16
54588;BME280;40484;50.198;19.576;2023-06-14T21:45:41;101774.38;;;19.69;48.16
54588;BME280;40484;50.198;19.576;2023-06-14T21:51:11;101768.03;;;19.59;48.33
54588;BME280;40484;50.198;19.576;2023-06-14T21:56:12;101770.81;;;19.38;48.68
54588;BME280;40484;50.198;19.576;2023-06-14T22:01:14;101765.47;;;19.23;48.66
54588;BME280;40484;50.198;19.576;2023-06-14T22:06:16;101764.22;;;19.11;48.42
54588;BME280;40484;50.198;19.576;2023-06-14T22:11:18;101758.24;;;19.04;48.23
54588;BME280;40484;50.198;19.576;2023-06-14T22:16:21;101759.27;;;18.96;48.35
54588;BME280;40484;50.198;19.576;2023-06-14T22:21:25;101759.47;;;18.85;48.55
54588;BME280;40484;50.198;19.576;2023-06-14T22:26:28;101762.27;;;18.59;49.18
54588;BME280;40484;50.198;19.576;2023-06-14T22:31:29;101755.02;;;18.77;49.24
54588;BME280;40484;50.198;19.576;2023-06-14T22:36:33;101751.86;;;18.76;49.32
54588;BME280;40484;50.198;19.576;2023-06-14T22:41:35;101749.89;;;18.32;50.70
54588;BME280;40484;50.198;19.576;2023-06-14T22:46:38;101752.64;;;17.94;51.93
54588;BME280;40484;50.198;19.576;2023-06-14T22:51:41;101752.16;;;17.69;53.04
54588;BME280;40484;50.198;19.576;2023-06-14T22:56:44;101755.95;;;17.54;53.49
54588;BME280;40484;50.198;19.576;2023-06-14T23:01:46;101750.59;;;17.78;52.95
54588;BME280;40484;50.198;19.576;2023-06-14T23:06:49;101750.58;;;17.91;52.80
54588;BME280;40484;50.198;19.576;2023-06-14T23:11:54;101750.66;;;18.13;52.45
54588;BME280;40484;50.198;19.576;2023-06-14T23:16:55;101747.18;;;18.31;51.99
54588;BME280;40484;50.198;19.576;2023-06-14T23:21:57;101739.97;;;18.34;51.74
54588;BME280;40484;50.198;19.576;2023-06-14T23:27:27;101740.58;;;18.12;52.37
54588;BME280;40484;50.198;19.576;2023-06-14T23:32:30;101733.41;;;18.11;52.56
54588;BME280;40484;50.198;19.576;2023-06-14T23:37:36;101733.66;;;18.22;52.39
54588;BME280;40484;50.198;19.576;2023-06-14T23:42:37;101727.20;;;18.17;52.58
54588;BME280;40484;50.198;19.576;2023-06-14T23:47:41;101728.11;;;18.03;52.67
54588;BME280;40484;50.198;19.576;2023-06-14T23:52:42;101733.23;;;17.83;52.95
54588;BME280;40484;50.198;19.576;2023-06-14T23:57:44;101728.31;;;17.90;52.73
